Time;durP1;ratioP1;P1;durP2;ratioP2;P2;SDS_P1;SDS_P2;PMS_P1;PMS_P2;Temp;Humidity;BMP_temperature;BMP_pressure;BME280_temperature;BME280_humidity;BME280_pressure;Samples;Min_cycle;Max_cycle;Signal;HPM_P1;HPM_P2
2021/12/10 00:02:07;;;;;;;1.90;1.27;;;;;;;;;;4483130;28;20828;-65
2021/12/10 00:04:21;;;;;;;1.20;1.10;;;;;;;;;;4500043;28;20029;-64
2021/12/10 00:06:41;;;;;;;1.25;1.15;;;;;;;;;;4482735;28;20589;-64
2021/12/10 00:08:59;;;;;;;1.52;1.20;;;;;;;;;;4500507;28;20083;-64
2021/12/10 00:11:19;;;;;;;1.25;1.10;;;;;;;;;;4501761;28;20123;-64
2021/12/10 00:13:29;;;;;;;2.30;1.33;;;;;;;;;;4483568;28;20038;-65
2021/12/10 00:15:41;;;;;;;1.57;1.20;;;;;;;;;;4500987;28;21002;-65
2021/12/10 00:17:53;;;;;;;1.33;1.20;;;;;;;;;;4501134;28;20034;-64
2021/12/10 00:20:05;;;;;;;1.25;1.15;;;;;;;;;;4482759;28;20245;-64
2021/12/10 00:22:27;;;;;;;1.23;1.10;;;;;;;;;;4499060;28;20864;-64
2021/12/10 00:24:39;;;;;;;1.95;1.17;;;;;;;;;;4482825;28;20039;-64
2021/12/10 00:26:50;;;;;;;1.60;1.30;;;;;;;;;;4495529;28;20052;-64
2021/12/10 00:29:03;;;;;;;1.92;1.40;;;;;;;;;;4500799;28;20034;-64
2021/12/10 00:33:54;;;;;;;1.90;1.30;;;;;;;;;;4500582;28;20037;-64
2021/12/10 00:36:06;;;;;;;2.20;1.38;;;;;;;;;;4500983;28;20104;-64
2021/12/10 00:38:17;;;;;;;1.50;1.23;;;;;;;;;;4486651;28;20589;-64
2021/12/10 00:40:28;;;;;;;2.00;1.40;;;;;;;;;;4500514;28;20065;-64
2021/12/10 00:42:38;;;;;;;2.00;1.23;;;;;;;;;;4500719;28;20034;-64
2021/12/10 00:44:49;;;;;;;1.93;1.50;;;;;;;;;;4483350;28;20038;-64
2021/12/10 00:47:00;;;;;;;1.50;1.37;;;;;;;;;;4483641;28;20035;-64
2021/12/10 00:49:11;;;;;;;1.40;1.30;;;;;;;;;;4501093;28;20496;-64
2021/12/10 00:51:22;;;;;;;;;;;;;;;;;;4501686;28;20237;-64
2021/12/10 00:53:32;;;;;;;1.30;1.20;;;;;;;;;;4501371;28;20297;-64
2021/12/10 00:55:43;;;;;;;1.60;1.30;;;;;;;;;;4483214;28;20033;-64
2021/12/10 00:57:54;;;;;;;1.30;1.20;;;;;;;;;;4483015;28;20038;-64
2021/12/10 01:00:08;;;;;;;1.98;1.40;;;;;;;;;;4500892;28;20065;-65
2021/12/10 01:02:21;;;;;;;1.58;1.20;;;;;;;;;;4501838;28;20029;-65
2021/12/10 01:04:34;;;;;;;1.65;1.17;;;;;;;;;;4500916;28;20034;-64
2021/12/10 01:06:48;;;;;;;1.05;0.90;;;;;;;;;;4483722;28;20085;-64
2021/12/10 01:09:09;;;;;;;1.40;1.30;;;;;;;;;;4500946;28;20042;-64
2021/12/10 01:11:22;;;;;;;;;;;;;;;;;;4501312;28;20601;-64
2021/12/10 01:13:35;;;;;;;1.77;1.20;;;;;;;;;;4500902;28;19917;-64
2021/12/10 01:23:41;;;;;;;1.90;1.35;;;;;;;;;;4485245;28;20038;-64
2021/12/10 01:28:27;;;;;;;1.77;1.13;;;;;;;;;;4504676;28;20038;-64
2021/12/10 01:30:39;;;;;;;1.23;1.00;;;;;;;;;;4503222;28;20116;-65
2021/12/10 01:32:56;;;;;;;1.20;1.05;;;;;;;;;;4470815;28;20612;-65
2021/12/10 01:35:09;;;;;;;1.25;1.10;;;;;;;;;;4503240;28;20038;-64
2021/12/10 01:37:20;;;;;;;0.98;0.82;;;;;;;;;;4504130;28;20061;-65
2021/12/10 01:39:34;;;;;;;1.10;0.95;;;;;;;;;;4503469;28;20038;-65
2021/12/10 01:41:53;;;;;;;1.15;1.00;;;;;;;;;;4485224;28;20046;-65
2021/12/10 01:44:14;;;;;;;1.58;1.13;;;;;;;;;;4469987;28;20740;-65
2021/12/10 01:46:27;;;;;;;1.73;0.90;;;;;;;;;;4487194;28;20927;-64
2021/12/10 01:48:46;;;;;;;1.92;1.00;;;;;;;;;;4503290;28;20131;-65
2021/12/10 01:50:58;;;;;;;1.58;1.10;;;;;;;;;;4504221;28;20038;-65
2021/12/10 01:53:12;;;;;;;0.95;0.90;;;;;;;;;;4503902;28;20049;-65
2021/12/10 01:55:25;;;;;;;1.65;1.00;;;;;;;;;;4503938;28;20560;-64
2021/12/10 01:57:37;;;;;;;1.13;0.98;;;;;;;;;;4485542;28;20034;-64
2021/12/10 01:59:48;;;;;;;1.67;1.10;;;;;;;;;;4502765;28;20046;-65
2021/12/10 02:02:05;;;;;;;1.42;1.00;;;;;;;;;;4486761;28;20044;-65
2021/12/10 02:04:18;;;;;;;1.25;1.05;;;;;;;;;;4503139;28;20018;-65
2021/12/10 02:06:28;;;;;;;1.23;0.80;;;;;;;;;;4503228;28;20041;-64
2021/12/10 02:08:39;;;;;;;1.13;1.03;;;;;;;;;;4503033;28;20026;-65
2021/12/10 02:10:50;;;;;;;1.35;0.90;;;;;;;;;;4502503;28;20580;-65
2021/12/10 02:13:01;;;;;;;1.17;1.07;;;;;;;;;;4502744;28;20022;-65
2021/12/10 02:15:13;;;;;;;0.93;0.80;;;;;;;;;;4501510;28;20026;-65
2021/12/10 02:17:30;;;;;;;1.83;1.00;;;;;;;;;;4484777;28;20515;-65
2021/12/10 02:19:41;;;;;;;1.00;0.90;;;;;;;;;;4484196;28;21237;-64
2021/12/10 02:21:52;;;;;;;1.90;1.17;;;;;;;;;;4503054;28;20038;-65
2021/12/10 02:24:03;;;;;;;1.70;1.40;;;;;;;;;;4502958;28;20030;-65
2021/12/10 02:26:14;;;;;;;2.30;1.30;;;;;;;;;;4487078;28;20715;-64
2021/12/10 02:28:25;;;;;;;2.30;1.40;;;;;;;;;;4502279;28;20145;-64
2021/12/10 02:30:36;;;;;;;0.80;0.80;;;;;;;;;;4484981;28;28597;-64
2021/12/10 02:32:47;;;;;;;1.10;1.00;;;;;;;;;;4502821;28;20029;-64
2021/12/10 02:34:57;;;;;;;1.00;0.90;;;;;;;;;;4503318;28;20080;-64
2021/12/10 02:37:07;;;;;;;1.47;1.30;;;;;;;;;;4503170;28;20030;-64
2021/12/10 02:39:20;;;;;;;1.73;1.37;;;;;;;;;;4484084;28;20053;-64
2021/12/10 02:41:32;;;;;;;1.13;1.02;;;;;;;;;;4484139;28;20042;-63
2021/12/10 02:43:43;;;;;;;1.65;1.20;;;;;;;;;;4484496;28;20080;-64
2021/12/10 02:45:56;;;;;;;2.08;1.38;;;;;;;;;;4484711;28;20076;-64
2021/12/10 02:48:06;;;;;;;1.35;1.20;;;;;;;;;;4500678;28;20058;-65
2021/12/10 02:50:19;;;;;;;1.30;1.20;;;;;;;;;;4502116;28;20033;-64
2021/12/10 02:52:30;;;;;;;1.13;0.90;;;;;;;;;;4502309;28;20170;-65
2021/12/10 02:54:43;;;;;;;1.20;1.10;;;;;;;;;;4502074;28;20026;-65
2021/12/10 02:56:53;;;;;;;1.85;1.38;;;;;;;;;;4485015;28;20026;-65
2021/12/10 02:59:04;;;;;;;1.50;1.40;;;;;;;;;;4502374;28;20054;-65
2021/12/10 03:01:29;;;;;;;1.57;1.47;;;;;;;;;;4484383;28;20018;-64
2021/12/10 03:03:41;;;;;;;2.15;1.42;;;;;;;;;;4500544;28;20022;-65
2021/12/10 03:05:52;;;;;;;1.30;1.20;;;;;;;;;;4485774;28;20112;-65
2021/12/10 03:08:03;;;;;;;1.50;1.40;;;;;;;;;;4497683;28;20037;-65
2021/12/10 03:10:17;;;;;;;1.30;1.20;;;;;;;;;;4501237;28;20051;-64
2021/12/10 03:12:27;;;;;;;1.30;1.20;;;;;;;;;;4501831;28;20619;-64
2021/12/10 03:14:40;;;;;;;1.13;1.00;;;;;;;;;;4502255;28;20127;-64
2021/12/10 03:16:52;;;;;;;1.40;1.30;;;;;;;;;;4501523;28;20018;-64
2021/12/10 03:19:04;;;;;;;1.77;1.20;;;;;;;;;;4501786;28;20034;-64
2021/12/10 03:21:14;;;;;;;1.77;1.60;;;;;;;;;;4491628;28;20822;-64
2021/12/10 03:23:25;;;;;;;1.17;0.93;;;;;;;;;;4501631;28;20038;-65
2021/12/10 03:25:35;;;;;;;1.20;1.10;;;;;;;;;;4483478;28;20022;-64
2021/12/10 03:27:47;;;;;;;1.30;1.17;;;;;;;;;;4501643;28;20014;-65
2021/12/10 03:29:57;;;;;;;1.75;1.30;;;;;;;;;;4483255;28;20069;-64
2021/12/10 03:32:30;;;;;;;1.50;1.40;;;;;;;;;;4501694;28;20114;-64
2021/12/10 03:34:41;;;;;;;1.40;1.30;;;;;;;;;;4492790;28;20992;-64
2021/12/10 03:36:53;;;;;;;1.77;1.20;;;;;;;;;;4501562;28;20022;-65
2021/12/10 03:39:04;;;;;;;1.35;1.23;;;;;;;;;;4500795;28;20038;-64
2021/12/10 03:41:16;;;;;;;1.35;1.25;;;;;;;;;;4501243;28;20073;-64
2021/12/10 03:43:26;;;;;;;1.45;1.35;;;;;;;;;;4501176;28;20675;-64
2021/12/10 03:45:41;;;;;;;1.37;1.17;;;;;;;;;;4486243;28;20133;-64
2021/12/10 03:47:52;;;;;;;1.55;1.40;;;;;;;;;;4501961;28;20253;-64
2021/12/10 03:50:04;;;;;;;1.70;1.40;;;;;;;;;;4469425;28;20034;-65
2021/12/10 03:52:15;;;;;;;1.30;1.20;;;;;;;;;;4503255;28;20125;-64
2021/12/10 03:54:26;;;;;;;2.13;1.50;;;;;;;;;;4501677;28;20034;-65
2021/12/10 03:56:39;;;;;;;1.33;1.23;;;;;;;;;;4485976;28;21255;-64
2021/12/10 03:58:50;;;;;;;1.20;1.10;;;;;;;;;;4483232;28;20046;-64
2021/12/10 04:01:04;;;;;;;1.73;1.20;;;;;;;;;;4500915;28;20534;-64
2021/12/10 04:03:17;;;;;;;1.50;1.33;;;;;;;;;;4490336;28;20095;-64
2021/12/10 04:05:28;;;;;;;1.40;1.23;;;;;;;;;;4497590;28;20029;-65
2021/12/10 04:07:38;;;;;;;1.40;1.30;;;;;;;;;;4482967;28;20521;-64
2021/12/10 04:09:50;;;;;;;1.53;1.23;;;;;;;;;;4500988;28;20481;-64
2021/12/10 04:12:00;;;;;;;;;;;;;;;;;;4502385;28;20692;-64
2021/12/10 04:14:11;;;;;;;1.15;1.05;;;;;;;;;;4501198;28;19909;-64
2021/12/10 04:16:24;;;;;;;1.63;1.20;;;;;;;;;;4483280;28;20018;-64
2021/12/10 04:18:36;;;;;;;1.55;1.25;;;;;;;;;;4499514;28;20069;-64
2021/12/10 04:20:47;;;;;;;1.17;1.08;;;;;;;;;;4500389;28;20026;-65
2021/12/10 04:22:59;;;;;;;1.10;1.00;;;;;;;;;;4501707;28;20389;-64
2021/12/10 04:25:09;;;;;;;0.90;0.90;;;;;;;;;;4500864;28;20036;-65
2021/12/10 04:27:20;;;;;;;1.20;1.10;;;;;;;;;;4484173;28;20029;-64
2021/12/10 04:29:30;;;;;;;1.10;1.00;;;;;;;;;;4497895;28;20026;-65
2021/12/10 04:31:41;;;;;;;1.60;1.10;;;;;;;;;;4485301;28;21353;-65
2021/12/10 04:33:52;;;;;;;1.10;1.00;;;;;;;;;;4501325;28;20034;-65
2021/12/10 04:36:03;;;;;;;1.23;1.00;;;;;;;;;;4482708;28;20014;-64
2021/12/10 04:38:14;;;;;;;;;;;;;;;;;;4483795;28;21300;-64
2021/12/10 04:40:25;;;;;;;1.65;1.13;;;;;;;;;;4500887;28;19913;-64
2021/12/10 04:42:35;;;;;;;1.00;0.90;;;;;;;;;;4500432;28;20034;-65
2021/12/10 04:44:46;;;;;;;1.97;1.20;;;;;;;;;;4483620;28;20390;-64
2021/12/10 04:46:57;;;;;;;1.02;0.95;;;;;;;;;;4500685;28;20022;-64
2021/12/10 04:49:12;;;;;;;0.90;0.90;;;;;;;;;;4482389;28;20030;-65
2021/12/10 04:51:26;;;;;;;1.35;1.25;;;;;;;;;;4482795;28;20801;-64
2021/12/10 04:53:36;;;;;;;1.85;1.15;;;;;;;;;;4499322;28;20036;-64
2021/12/10 04:55:48;;;;;;;1.80;1.30;;;;;;;;;;4483815;28;20493;-64
2021/12/10 04:57:59;;;;;;;1.42;1.17;;;;;;;;;;4500213;28;20018;-64
2021/12/10 05:00:12;;;;;;;2.30;1.20;;;;;;;;;;4481888;28;20078;-64
2021/12/10 05:02:23;;;;;;;1.80;1.23;;;;;;;;;;4500219;28;20032;-64
2021/12/10 05:04:34;;;;;;;2.10;1.53;;;;;;;;;;4500829;28;20097;-64
2021/12/10 05:06:44;;;;;;;1.40;1.23;;;;;;;;;;4500702;28;20266;-64
2021/12/10 05:08:55;;;;;;;1.30;1.10;;;;;;;;;;4482874;28;20054;-64
2021/12/10 05:11:07;;;;;;;1.47;1.20;;;;;;;;;;4465925;28;20168;-64
2021/12/10 05:13:17;;;;;;;1.58;1.38;;;;;;;;;;4499496;28;20018;-64
2021/12/10 05:15:30;;;;;;;1.73;1.40;;;;;;;;;;4500387;28;20018;-64
2021/12/10 05:17:41;;;;;;;1.25;1.15;;;;;;;;;;4500581;28;20038;-64
2021/12/10 05:19:52;;;;;;;1.70;1.40;;;;;;;;;;4482358;28;20066;-64
2021/12/10 05:22:06;;;;;;;1.50;1.20;;;;;;;;;;4499679;28;20075;-65
2021/12/10 05:24:17;;;;;;;1.42;1.25;;;;;;;;;;4499554;28;20034;-65
2021/12/10 05:26:28;;;;;;;1.52;1.20;;;;;;;;;;4500468;28;20033;-63
2021/12/10 05:28:39;;;;;;;1.87;1.20;;;;;;;;;;4482469;28;20042;-63
2021/12/10 05:30:54;;;;;;;1.27;1.00;;;;;;;;;;4499074;28;20269;-63
2021/12/10 05:33:05;;;;;;;1.67;1.38;;;;;;;;;;4483721;28;20037;-63
2021/12/10 05:35:15;;;;;;;1.43;1.10;;;;;;;;;;4482728;28;20029;-63
2021/12/10 05:37:26;;;;;;;1.83;1.30;;;;;;;;;;4484041;28;20502;-64
2021/12/10 05:39:36;;;;;;;1.75;1.33;;;;;;;;;;4481946;28;20912;-63
2021/12/10 05:41:47;;;;;;;1.40;1.30;;;;;;;;;;4499707;28;20049;-63
2021/12/10 05:43:58;;;;;;;1.70;1.30;;;;;;;;;;4500250;28;20133;-63
2021/12/10 05:46:09;;;;;;;1.67;1.30;;;;;;;;;;4500054;28;20129;-64
2021/12/10 05:48:21;;;;;;;1.58;1.20;;;;;;;;;;4499928;28;20824;-63
2021/12/10 05:50:32;;;;;;;;;;;;;;;;;;4490566;28;20023;-63
2021/12/10 05:52:42;;;;;;;2.00;1.50;;;;;;;;;;4482447;28;19969;-63
2021/12/10 05:54:53;;;;;;;1.83;1.50;;;;;;;;;;4500308;28;20375;-63
2021/12/10 05:57:04;;;;;;;1.53;1.10;;;;;;;;;;4499968;28;20069;-63
2021/12/10 05:59:15;;;;;;;1.63;1.20;;;;;;;;;;4499217;28;20100;-63
2021/12/10 06:01:25;;;;;;;1.30;1.07;;;;;;;;;;4499748;28;20117;-63
2021/12/10 06:03:38;;;;;;;1.37;1.07;;;;;;;;;;4503375;28;20065;-63
2021/12/10 06:05:49;;;;;;;1.80;1.20;;;;;;;;;;4478141;28;20032;-63
2021/12/10 06:08:00;;;;;;;1.30;0.90;;;;;;;;;;4502496;28;20398;-63
2021/12/10 06:10:11;;;;;;;;;;;;;;;;;;4489247;28;20046;-63
2021/12/10 06:12:22;;;;;;;1.00;0.90;;;;;;;;;;4503105;28;20367;-63
2021/12/10 06:14:33;;;;;;;1.83;1.20;;;;;;;;;;4484502;28;20638;-63
2021/12/10 06:16:43;;;;;;;1.40;1.10;;;;;;;;;;4502486;28;20030;-63
2021/12/10 06:18:54;;;;;;;1.30;1.10;;;;;;;;;;4502924;28;20053;-63
2021/12/10 06:21:04;;;;;;;1.40;1.10;;;;;;;;;;4503065;28;20033;-63
2021/12/10 06:23:15;;;;;;;1.33;1.10;;;;;;;;;;4503264;28;20026;-63
2021/12/10 06:25:30;;;;;;;1.43;1.03;;;;;;;;;;4502435;28;20058;-63
2021/12/10 06:27:44;;;;;;;1.30;1.00;;;;;;;;;;4502018;28;20033;-63
2021/12/10 06:29:54;;;;;;;1.13;0.93;;;;;;;;;;4503241;28;20036;-63
2021/12/10 06:32:05;;;;;;;2.27;1.10;;;;;;;;;;4485039;28;20037;-63
2021/12/10 06:34:15;;;;;;;1.07;0.97;;;;;;;;;;4502616;28;20044;-63
2021/12/10 06:36:27;;;;;;;1.37;1.00;;;;;;;;;;4501883;28;21802;-63
2021/12/10 06:38:38;;;;;;;1.38;1.10;;;;;;;;;;4500958;28;20046;-63
2021/12/10 06:40:53;;;;;;;2.03;1.53;;;;;;;;;;4501814;28;20034;-63
2021/12/10 06:43:04;;;;;;;2.28;1.50;;;;;;;;;;4502818;28;20042;-63
2021/12/10 06:45:18;;;;;;;1.48;1.33;;;;;;;;;;4484794;28;20019;-63
2021/12/10 06:47:28;;;;;;;2.35;1.20;;;;;;;;;;4502164;28;20600;-63
2021/12/10 06:49:38;;;;;;;1.37;1.23;;;;;;;;;;4502114;28;20036;-63
2021/12/10 06:51:49;;;;;;;1.63;1.50;;;;;;;;;;4501709;28;20706;-63
2021/12/10 06:53:59;;;;;;;1.43;1.13;;;;;;;;;;4484003;28;20026;-63
2021/12/10 06:56:10;;;;;;;1.77;1.07;;;;;;;;;;4485046;28;20069;-63
2021/12/10 06:58:23;;;;;;;1.90;1.20;;;;;;;;;;4467674;28;21277;-63
2021/12/10 07:00:42;;;;;;;2.78;1.52;;;;;;;;;;4501481;28;20033;-63
2021/12/10 07:02:52;;;;;;;2.42;1.33;;;;;;;;;;4502237;28;20072;-63
2021/12/10 07:05:04;;;;;;;2.07;1.43;;;;;;;;;;4483932;28;20089;-64
2021/12/10 07:07:15;;;;;;;1.63;1.33;;;;;;;;;;4483941;28;20582;-64
2021/12/10 07:09:26;;;;;;;1.67;1.30;;;;;;;;;;4501727;28;20034;-64
2021/12/10 07:11:36;;;;;;;2.17;1.40;;;;;;;;;;4501737;28;20651;-64
2021/12/10 07:13:50;;;;;;;1.90;1.33;;;;;;;;;;4501793;28;21260;-64
2021/12/10 07:16:02;;;;;;;1.60;1.20;;;;;;;;;;4484166;28;20026;-64
2021/12/10 07:18:12;;;;;;;1.60;1.38;;;;;;;;;;4501763;28;20105;-64
2021/12/10 07:20:23;;;;;;;1.27;1.00;;;;;;;;;;4483139;28;20030;-64
2021/12/10 07:22:34;;;;;;;2.47;1.23;;;;;;;;;;4484379;28;20031;-64
2021/12/10 07:24:45;;;;;;;2.00;1.10;;;;;;;;;;4501424;28;20022;-64
2021/12/10 07:26:57;;;;;;;3.17;1.60;;;;;;;;;;4497111;28;20026;-64
2021/12/10 07:29:08;;;;;;;1.88;1.20;;;;;;;;;;4499464;28;21011;-64
2021/12/10 07:31:18;;;;;;;2.90;1.53;;;;;;;;;;4502323;28;20052;-64
2021/12/10 07:33:29;;;;;;;2.00;1.30;;;;;;;;;;4501925;28;20029;-64
2021/12/10 07:35:40;;;;;;;2.17;1.13;;;;;;;;;;4502772;28;20061;-64
2021/12/10 07:37:51;;;;;;;1.93;1.23;;;;;;;;;;4492566;28;20035;-64
2021/12/10 07:40:04;;;;;;;2.47;1.40;;;;;;;;;;4482829;28;20042;-64
2021/12/10 07:42:14;;;;;;;2.00;1.38;;;;;;;;;;4482503;28;21162;-65
2021/12/10 07:44:27;;;;;;;3.45;1.70;;;;;;;;;;4482476;28;20101;-64
2021/12/10 07:46:39;;;;;;;2.83;1.83;;;;;;;;;;4499943;28;20026;-64
2021/12/10 07:48:50;;;;;;;2.35;1.45;;;;;;;;;;4482543;28;20026;-64
2021/12/10 07:51:06;;;;;;;1.57;1.30;;;;;;;;;;4482815;28;20026;-64
2021/12/10 07:53:19;;;;;;;2.03;1.25;;;;;;;;;;4482593;28;20056;-64
2021/12/10 07:55:31;;;;;;;2.42;1.27;;;;;;;;;;4500286;28;20513;-64
2021/12/10 07:57:43;;;;;;;2.85;1.40;;;;;;;;;;4483232;28;20058;-64
2021/12/10 07:59:53;;;;;;;3.00;1.88;;;;;;;;;;4482621;28;20680;-64
2021/12/10 08:02:05;;;;;;;2.67;1.80;;;;;;;;;;4500674;28;24687;-64
2021/12/10 08:04:15;;;;;;;3.53;2.22;;;;;;;;;;4465799;28;20603;-64
2021/12/10 08:06:27;;;;;;;3.37;1.90;;;;;;;;;;4500609;28;20375;-64
2021/12/10 08:08:38;;;;;;;2.63;1.60;;;;;;;;;;4500659;28;20287;-64
2021/12/10 08:10:48;;;;;;;1.73;1.20;;;;;;;;;;4500568;28;20026;-65
2021/12/10 08:12:59;;;;;;;1.47;1.20;;;;;;;;;;4482299;28;20530;-64
2021/12/10 08:15:10;;;;;;;1.60;1.13;;;;;;;;;;4500691;28;20018;-65
2021/12/10 08:17:20;;;;;;;2.73;1.30;;;;;;;;;;4475884;28;20772;-65
2021/12/10 08:19:31;;;;;;;3.17;2.00;;;;;;;;;;4499526;28;20772;-64
2021/12/10 08:21:42;;;;;;;3.20;2.30;;;;;;;;;;4499674;28;20037;-64
2021/12/10 08:23:53;;;;;;;3.80;1.70;;;;;;;;;;4485913;28;20565;-64
2021/12/10 08:26:04;;;;;;;2.30;1.43;;;;;;;;;;4499405;28;20391;-65
2021/12/10 08:28:15;;;;;;;2.53;1.35;;;;;;;;;;4499505;28;20141;-64
2021/12/10 08:30:28;;;;;;;2.20;1.38;;;;;;;;;;4483437;28;20105;-64
2021/12/10 08:32:39;;;;;;;1.50;1.20;;;;;;;;;;4481159;28;20149;-64
2021/12/10 08:34:50;;;;;;;2.83;1.40;;;;;;;;;;4498970;28;20022;-64
2021/12/10 08:37:00;;;;;;;3.13;1.67;;;;;;;;;;4481678;28;20565;-65
2021/12/10 08:39:11;;;;;;;1.63;1.20;;;;;;;;;;4481294;28;20034;-64
2021/12/10 08:41:26;;;;;;;2.55;1.45;;;;;;;;;;4482243;28;20030;-64
2021/12/10 08:43:36;;;;;;;1.63;1.20;;;;;;;;;;4486424;28;20030;-65
2021/12/10 08:45:47;;;;;;;3.13;1.83;;;;;;;;;;4500199;28;20018;-65
2021/12/10 08:47:58;;;;;;;2.70;1.67;;;;;;;;;;4501124;28;20076;-65
2021/12/10 08:50:09;;;;;;;2.65;1.65;;;;;;;;;;4481880;28;20031;-65
2021/12/10 08:52:20;;;;;;;1.83;1.17;;;;;;;;;;4501504;28;20687;-65
2021/12/10 08:54:31;;;;;;;2.87;1.50;;;;;;;;;;4479938;28;20038;-65
2021/12/10 08:56:42;;;;;;;1.50;1.23;;;;;;;;;;4499717;28;20048;-64
2021/12/10 08:58:52;;;;;;;3.07;1.60;;;;;;;;;;4499211;28;21456;-64
2021/12/10 09:01:09;;;;;;;3.67;1.90;;;;;;;;;;4499888;28;20034;-64
2021/12/10 09:03:20;;;;;;;2.80;1.73;;;;;;;;;;4496665;28;20073;-65
2021/12/10 09:05:30;;;;;;;2.67;1.50;;;;;;;;;;4481085;28;20109;-66
2021/12/10 09:07:44;;;;;;;2.77;1.70;;;;;;;;;;4451998;28;20051;-65
2021/12/10 09:09:55;;;;;;;2.92;1.52;;;;;;;;;;4472108;28;20057;-65
2021/12/10 09:12:11;;;;;;;2.17;1.60;;;;;;;;;;4465220;28;20811;-65
2021/12/10 09:14:27;;;;;;;2.15;1.40;;;;;;;;;;4463638;28;20043;-64
2021/12/10 09:16:38;;;;;;;3.50;1.80;;;;;;;;;;4479257;28;20045;-63
2021/12/10 09:18:50;;;;;;;4.38;2.42;;;;;;;;;;4462937;28;20054;-64
2021/12/10 09:21:02;;;;;;;2.67;1.88;;;;;;;;;;4463809;28;20034;-64
2021/12/10 09:23:16;;;;;;;1.55;1.10;;;;;;;;;;4464138;28;20053;-65
2021/12/10 09:25:28;;;;;;;2.17;1.30;;;;;;;;;;4478996;28;20615;-65
2021/12/10 09:27:39;;;;;;;2.72;1.58;;;;;;;;;;4464748;28;20093;-63
2021/12/10 09:29:52;;;;;;;2.38;1.52;;;;;;;;;;4464257;28;20102;-64
2021/12/10 09:32:05;;;;;;;2.05;1.20;;;;;;;;;;4479468;28;20042;-63
2021/12/10 09:34:17;;;;;;;2.75;1.20;;;;;;;;;;4464822;28;20822;-63
2021/12/10 09:36:29;;;;;;;2.08;1.20;;;;;;;;;;4480205;28;21076;-63
2021/12/10 09:38:40;;;;;;;1.95;1.10;;;;;;;;;;4483601;28;20044;-63
2021/12/10 09:40:55;;;;;;;2.23;1.10;;;;;;;;;;4467763;28;20620;-63
2021/12/10 09:43:09;;;;;;;2.15;1.00;;;;;;;;;;4482630;28;20093;-64
2021/12/10 09:45:23;;;;;;;1.67;0.90;;;;;;;;;;4466143;28;20106;-63
2021/12/10 09:47:33;;;;;;;2.35;0.85;;;;;;;;;;4467527;28;20035;-64
2021/12/10 09:49:50;;;;;;;1.23;0.80;;;;;;;;;;4466388;28;20039;-64
2021/12/10 09:52:04;;;;;;;2.42;0.90;;;;;;;;;;4458978;28;20737;-64
2021/12/10 09:54:19;;;;;;;1.42;0.80;;;;;;;;;;4465807;28;20049;-63
2021/12/10 09:56:30;;;;;;;2.20;0.90;;;;;;;;;;4449403;28;20543;-63
2021/12/10 09:58:41;;;;;;;1.37;0.70;;;;;;;;;;4481687;28;20050;-64
2021/12/10 10:01:00;;;;;;;2.03;0.90;;;;;;;;;;4450683;28;20042;-63
2021/12/10 10:03:13;;;;;;;1.38;0.65;;;;;;;;;;4467139;28;20023;-63
2021/12/10 10:05:26;;;;;;;2.35;0.90;;;;;;;;;;4467418;28;20076;-63
2021/12/10 10:07:38;;;;;;;1.80;0.80;;;;;;;;;;4467382;28;20557;-64
2021/12/10 10:09:51;;;;;;;2.00;0.90;;;;;;;;;;4482122;28;20338;-63
2021/12/10 10:12:07;;;;;;;1.98;0.80;;;;;;;;;;4483131;28;20081;-64
2021/12/10 10:14:18;;;;;;;2.00;0.93;;;;;;;;;;4468101;28;21532;-64
2021/12/10 10:16:29;;;;;;;2.03;0.97;;;;;;;;;;4434146;28;20042;-64
2021/12/10 10:18:40;;;;;;;;;;;;;;;;;;4454222;28;20134;-64
2021/12/10 10:20:56;;;;;;;2.00;0.90;;;;;;;;;;4467072;28;19968;-64
2021/12/10 10:23:07;;;;;;;2.20;0.98;;;;;;;;;;4466391;28;20593;-63
2021/12/10 10:25:21;;;;;;;1.50;0.90;;;;;;;;;;4448216;28;20675;-64
2021/12/10 10:27:33;;;;;;;1.38;0.73;;;;;;;;;;4466761;28;20061;-64
2021/12/10 10:29:49;;;;;;;1.85;0.85;;;;;;;;;;4466467;28;20597;-63
2021/12/10 10:32:08;;;;;;;2.15;0.88;;;;;;;;;;4466820;28;20035;-63
2021/12/10 10:34:20;;;;;;;1.63;0.80;;;;;;;;;;4467306;28;20629;-64
2021/12/10 10:36:32;;;;;;;2.50;0.98;;;;;;;;;;4466339;28;20026;-64
2021/12/10 10:38:49;;;;;;;1.23;0.80;;;;;;;;;;4465824;28;20533;-64
2021/12/10 10:41:06;;;;;;;1.02;0.60;;;;;;;;;;4447947;28;21163;-64
2021/12/10 10:43:17;;;;;;;1.67;0.70;;;;;;;;;;4465225;28;20035;-64
2021/12/10 10:45:31;;;;;;;1.57;0.77;;;;;;;;;;4466316;28;20562;-64
2021/12/10 10:47:41;;;;;;;2.33;0.90;;;;;;;;;;4465848;28;20031;-64
2021/12/10 10:50:16;;;;;;;0.97;0.63;;;;;;;;;;4464885;28;20047;-64
2021/12/10 10:52:35;;;;;;;1.75;0.77;;;;;;;;;;4466274;28;20035;-64
2021/12/10 10:54:47;;;;;;;2.63;0.70;;;;;;;;;;4465740;28;20039;-64
2021/12/10 10:56:58;;;;;;;1.90;0.77;;;;;;;;;;4447889;28;20164;-63
2021/12/10 10:59:27;;;;;;;1.30;0.50;;;;;;;;;;4465170;28;20134;-64
2021/12/10 11:01:57;;;;;;;1.15;0.70;;;;;;;;;;4466879;28;20093;-65
2021/12/10 11:04:16;;;;;;;2.22;0.90;;;;;;;;;;4461286;28;20061;-64
2021/12/10 11:06:34;;;;;;;1.45;0.60;;;;;;;;;;4465639;28;20041;-64
2021/12/10 11:08:48;;;;;;;1.85;0.80;;;;;;;;;;4466797;28;20488;-64
2021/12/10 11:11:08;;;;;;;2.60;0.70;;;;;;;;;;4466424;28;20035;-64
2021/12/10 11:13:21;;;;;;;0.82;0.70;;;;;;;;;;4467091;28;20641;-63
2021/12/10 11:15:31;;;;;;;1.02;0.70;;;;;;;;;;4467278;28;20042;-64
2021/12/10 11:17:45;;;;;;;2.23;0.70;;;;;;;;;;4466575;28;20039;-64
2021/12/10 11:19:58;;;;;;;2.65;0.90;;;;;;;;;;4466526;28;20046;-64
2021/12/10 11:22:14;;;;;;;1.63;0.73;;;;;;;;;;4468127;28;20043;-64
2021/12/10 11:24:25;;;;;;;1.27;0.63;;;;;;;;;;4465848;28;20038;-64
2021/12/10 11:26:57;;;;;;;1.88;0.80;;;;;;;;;;4466336;28;20046;-64
2021/12/10 11:29:08;;;;;;;1.45;0.70;;;;;;;;;;4465901;28;20039;-64
2021/12/10 11:31:18;;;;;;;2.00;0.80;;;;;;;;;;4479552;28;20034;-65
2021/12/10 11:33:35;;;;;;;3.03;0.97;;;;;;;;;;4466390;28;20038;-64
2021/12/10 11:35:51;;;;;;;2.50;0.80;;;;;;;;;;4466606;28;20046;-64
2021/12/10 11:38:17;;;;;;;0.77;0.50;;;;;;;;;;4466766;28;20039;-64
2021/12/10 11:40:46;;;;;;;1.48;0.57;;;;;;;;;;4465144;28;20577;-64
2021/12/10 11:43:02;;;;;;;2.33;0.80;;;;;;;;;;4466237;28;20049;-64
2021/12/10 11:45:40;;;;;;;2.17;0.70;;;;;;;;;;4468764;28;20034;-64
2021/12/10 11:47:53;;;;;;;2.15;0.70;;;;;;;;;;4466091;28;20030;-64
2021/12/10 11:50:16;;;;;;;2.38;0.93;;;;;;;;;;4465906;28;20118;-64
2021/12/10 11:52:28;;;;;;;1.75;0.80;;;;;;;;;;4466540;28;20065;-64
2021/12/10 11:54:54;;;;;;;1.98;0.80;;;;;;;;;;4466014;28;20129;-64
2021/12/10 11:57:31;;;;;;;0.98;0.63;;;;;;;;;;4466083;28;20971;-64
2021/12/10 11:59:50;;;;;;;0.93;0.65;;;;;;;;;;4446965;28;20162;-64
2021/12/10 12:02:07;;;;;;;1.80;0.80;;;;;;;;;;4466149;28;20043;-64
2021/12/10 12:04:23;;;;;;;1.60;0.80;;;;;;;;;;4480867;28;20034;-63
2021/12/10 12:06:33;;;;;;;1.90;1.15;;;;;;;;;;4448710;28;20769;-64
2021/12/10 12:08:44;;;;;;;3.17;1.10;;;;;;;;;;4482052;28;20121;-63
2021/12/10 12:11:02;;;;;;;1.35;0.80;;;;;;;;;;4466255;28;20822;-64
2021/12/10 12:15:31;;;;;;;1.70;0.82;;;;;;;;;;4464295;28;20043;-64
2021/12/10 12:17:49;;;;;;;1.55;0.65;;;;;;;;;;4448403;28;20042;-64
2021/12/10 12:20:00;;;;;;;2.33;0.80;;;;;;;;;;4465841;28;20150;-64
2021/12/10 12:23:50;;;;;;;1.42;1.00;;;;;;;;;;4466122;28;20760;-64
2021/12/10 12:24:57;;;;;;;1.92;0.95;;;;;;;;;;4479875;28;20034;-64
2021/12/10 12:27:10;;;;;;;1.73;0.90;;;;;;;;;;4465782;28;20043;-64
2021/12/10 12:29:20;;;;;;;1.35;0.75;;;;;;;;;;4447716;28;20043;-64
2021/12/10 12:31:54;;;;;;;1.43;0.87;;;;;;;;;;4465988;28;20031;-64
2021/12/10 12:34:07;;;;;;;2.08;0.80;;;;;;;;;;4465098;28;20157;-64
2021/12/10 12:36:18;;;;;;;1.90;0.90;;;;;;;;;;4465698;28;20122;-64
2021/12/10 12:38:30;;;;;;;2.83;1.00;;;;;;;;;;4463961;28;20039;-64
2021/12/10 12:40:43;;;;;;;3.42;1.00;;;;;;;;;;4462905;28;20043;-64
2021/12/10 12:42:53;;;;;;;1.65;0.90;;;;;;;;;;4464771;28;20026;-65
2021/12/10 12:45:23;;;;;;;2.03;1.13;;;;;;;;;;4465347;28;20023;-65
2021/12/10 12:47:38;;;;;;;2.17;1.00;;;;;;;;;;4466021;28;20618;-64
2021/12/10 12:49:48;;;;;;;2.70;1.23;;;;;;;;;;4465335;28;20214;-64
2021/12/10 12:52:11;;;;;;;2.13;0.93;;;;;;;;;;4465904;28;20097;-64
2021/12/10 12:54:22;;;;;;;3.38;0.90;;;;;;;;;;4447884;28;20040;-64
2021/12/10 12:56:38;;;;;;;2.90;1.10;;;;;;;;;;4456383;28;20042;-65
2021/12/10 12:58:57;;;;;;;1.38;0.85;;;;;;;;;;4465768;28;20633;-64
2021/12/10 13:01:10;;;;;;;1.98;0.95;;;;;;;;;;4465736;28;20034;-64
2021/12/10 13:03:25;;;;;;;1.63;0.70;;;;;;;;;;4448082;28;20027;-63
2021/12/10 13:05:41;;;;;;;2.40;0.80;;;;;;;;;;4447897;28;20146;-63
2021/12/10 13:08:04;;;;;;;2.40;0.80;;;;;;;;;;4464644;28;20038;-64
2021/12/10 13:10:19;;;;;;;2.08;1.10;;;;;;;;;;4447568;28;20759;-63
2021/12/10 13:12:46;;;;;;;1.38;0.80;;;;;;;;;;4449142;28;20027;-63
2021/12/10 13:15:01;;;;;;;3.65;1.02;;;;;;;;;;4451041;28;20142;-63
2021/12/10 13:17:16;;;;;;;2.00;0.90;;;;;;;;;;4468808;28;20026;-63
2021/12/10 13:19:30;;;;;;;1.88;0.82;;;;;;;;;;4482930;28;20042;-66
2021/12/10 13:21:41;;;;;;;3.63;1.20;;;;;;;;;;4465480;28;20103;-63
2021/12/10 13:23:51;;;;;;;1.23;0.80;;;;;;;;;;4466144;28;20031;-64
2021/12/10 13:26:05;;;;;;;1.57;1.00;;;;;;;;;;4482267;28;20038;-63
2021/12/10 13:28:16;;;;;;;1.35;0.80;;;;;;;;;;4467815;28;20042;-63
2021/12/10 13:30:32;;;;;;;2.73;1.40;;;;;;;;;;4482801;28;20038;-63
2021/12/10 13:32:45;;;;;;;3.72;1.35;;;;;;;;;;4467837;28;20786;-64
2021/12/10 13:34:56;;;;;;;2.13;0.90;;;;;;;;;;4482489;28;20628;-63
2021/12/10 13:37:11;;;;;;;1.77;0.80;;;;;;;;;;4468114;28;20049;-63